createdAt,value
2022-08-12T00:02:02.646Z,19.97
2022-08-12T00:04:52.067Z,20.42
2022-08-12T00:07:37.846Z,20.87
2022-08-12T00:10:25.543Z,21.09
2022-08-12T00:13:12.021Z,21.17
2022-08-12T00:16:00.381Z,21.06
2022-08-12T00:18:45.789Z,21.31
2022-08-12T00:21:31.818Z,21.39
2022-08-12T00:24:21.815Z,21.46
2022-08-12T00:27:08.721Z,21.33
2022-08-12T00:29:54.052Z,21.36
2022-08-12T00:32:45.311Z,21.16
2022-08-12T00:35:39.514Z,21.25
2022-08-12T00:38:26.078Z,21.07
2022-08-12T00:41:12.351Z,21.21
2022-08-12T00:43:44.729Z,21.01
2022-08-12T00:46:29.866Z,20.49
2022-08-12T00:48:58.338Z,20.38
2022-08-12T00:51:47.821Z,20.62
2022-08-12T00:54:16.870Z,20.03
2022-08-12T00:56:44.701Z,19.92
2022-08-12T00:59:14.675Z,20.56
2022-08-12T01:02:10.522Z,20.75
2022-08-12T01:04:52.805Z,20.75
2022-08-12T01:07:45.085Z,20.90
2022-08-12T01:10:33.016Z,20.92
2022-08-12T01:13:19.582Z,20.94
2022-08-12T01:15:53.803Z,21.00
2022-08-12T01:18:23.351Z,21.10
2022-08-12T01:21:01.312Z,21.20
2022-08-12T01:24:30.141Z,21.19
2022-08-12T01:26:54.709Z,20.94
2022-08-12T01:29:26.258Z,20.99
2022-08-12T01:31:59.209Z,20.91
2022-08-12T01:34:36.244Z,20.92
2022-08-12T01:37:14.777Z,20.63
2022-08-12T01:40:33.509Z,20.68
2022-08-12T01:42:45.922Z,21.05
2022-08-12T01:45:15.427Z,20.98
2022-08-12T01:47:56.642Z,20.88
2022-08-12T01:50:33.268Z,20.75
2022-08-12T01:53:08.253Z,20.21
2022-08-12T01:55:39.205Z,20.06
2022-08-12T01:58:24.240Z,19.79
2022-08-12T02:00:59.099Z,19.70
2022-08-12T02:04:02.973Z,19.79
2022-08-12T02:06:53.827Z,19.86
2022-08-12T02:09:47.048Z,19.99
2022-08-12T02:12:28.686Z,19.53
2022-08-12T02:15:12.904Z,18.97
2022-08-12T02:17:56.321Z,18.39
2022-08-12T02:20:43.859Z,18.85
2022-08-12T02:23:23.094Z,18.63
2022-08-12T02:25:55.523Z,19.07
2022-08-12T02:28:23.744Z,18.52
2022-08-12T02:30:53.411Z,17.90
2022-08-12T02:33:22.297Z,17.74
2022-08-12T02:35:51.553Z,17.13
2022-08-12T02:38:21.904Z,16.89
2022-08-12T02:40:54.660Z,17.72
2022-08-12T02:43:30.405Z,16.97
2022-08-12T02:46:04.506Z,16.96
2022-08-12T02:48:36.246Z,17.27
2022-08-12T02:51:07.422Z,17.38
2022-08-12T02:53:37.523Z,18.81
2022-08-12T02:56:06.793Z,19.18
2022-08-12T02:58:41.116Z,18.27
2022-08-12T03:01:10.805Z,18.40
2022-08-12T03:03:40.598Z,18.75
2022-08-12T03:06:10.470Z,19.57
2022-08-12T03:08:42.345Z,19.16
2022-08-12T03:11:17.278Z,19.28
2022-08-12T03:13:51.361Z,19.64
2022-08-12T03:16:20.656Z,19.37
2022-08-12T03:18:51.428Z,19.46
2022-08-12T03:21:53.201Z,19.24
2022-08-12T03:24:10.949Z,18.88
2022-08-12T03:26:39.353Z,18.98
2022-08-12T03:29:07.689Z,19.57
2022-08-12T03:31:36.874Z,19.26
2022-08-12T03:34:07.561Z,19.39
2022-08-12T03:36:37.412Z,19.61
2022-08-12T03:39:36.526Z,19.57
2022-08-12T03:42:23.057Z,19.53
2022-08-12T03:45:15.247Z,19.68
2022-08-12T03:48:10.894Z,18.67
2022-08-12T03:51:03.965Z,18.77
2022-08-12T03:53:50.394Z,18.98
2022-08-12T03:56:35.876Z,19.24
2022-08-12T03:59:23.866Z,19.69
2022-08-12T04:01:57.838Z,19.34
2022-08-12T04:04:35.301Z,19.21
2022-08-12T04:07:07.892Z,18.92
2022-08-12T04:09:37.002Z,18.84
2022-08-12T04:12:23.055Z,18.22
2022-08-12T04:14:57.153Z,18.83
2022-08-12T04:17:28.218Z,19.21
2022-08-12T04:20:02.122Z,18.91
2022-08-12T04:22:31.824Z,18.92
2022-08-12T04:25:03.897Z,19.41
2022-08-12T04:27:32.780Z,18.99
2022-08-12T04:30:29.101Z,18.87
2022-08-12T04:32:51.023Z,18.97
2022-08-12T04:35:21.491Z,18.65
2022-08-12T04:37:59.295Z,19.17
2022-08-12T04:40:29.685Z,19.47
2022-08-12T04:42:58.258Z,19.31
2022-08-12T04:45:25.996Z,19.64
2022-08-12T04:47:53.642Z,19.67
2022-08-12T04:50:33.955Z,19.10
2022-08-12T04:53:06.020Z,19.21
2022-08-12T04:55:34.574Z,19.51
2022-08-12T04:58:02.449Z,19.48
2022-08-12T05:00:30.194Z,19.53
2022-08-12T05:02:58.020Z,19.30
2022-08-12T05:05:35.181Z,19.53
2022-08-12T05:08:04.535Z,19.55
2022-08-12T05:10:35.382Z,19.29
2022-08-12T05:13:06.753Z,18.82
2022-08-12T05:15:36.061Z,18.94
2022-08-12T05:18:19.123Z,18.83
2022-08-12T05:20:49.361Z,18.99
2022-08-12T05:23:19.977Z,20.16
2022-08-12T05:25:50.586Z,21.65
2022-08-12T05:28:20.051Z,23.15
2022-08-12T05:30:49.752Z,23.92
2022-08-12T05:33:17.806Z,23.77
2022-08-12T05:35:54.090Z,24.44
2022-08-12T05:38:40.332Z,25.13
2022-08-12T05:41:19.234Z,26.23
2022-08-12T05:43:48.737Z,26.86
2022-08-12T05:46:19.077Z,27.57
2022-08-12T05:48:46.780Z,28.65
2022-08-12T05:51:16.869Z,28.18
2022-08-12T05:53:44.674Z,29.15
2022-08-12T05:56:24.004Z,29.43
2022-08-12T05:58:52.691Z,30.23
2022-08-12T06:02:08.788Z,30.73
2022-08-12T06:04:09.753Z,30.99
2022-08-12T06:06:41.593Z,31.10
2022-08-12T06:09:10.889Z,31.31
2022-08-12T06:11:41.490Z,31.52
2022-08-12T06:14:29.242Z,31.40
2022-08-12T06:16:57.974Z,31.31
2022-08-12T06:20:26.634Z,31.26
2022-08-12T06:22:16.984Z,31.48
2022-08-12T06:24:44.619Z,30.57
2022-08-12T06:27:12.927Z,30.48
2022-08-12T06:30:08.103Z,30.23
2022-08-12T06:32:29.527Z,30.64
2022-08-12T06:35:26.142Z,30.64
2022-08-12T06:37:56.601Z,30.80
2022-08-12T06:40:44.333Z,32.03
2022-08-12T06:43:14.392Z,32.76
2022-08-12T06:45:46.823Z,31.90
2022-08-12T06:48:14.955Z,31.65
2022-08-12T06:50:44.428Z,31.77
2022-08-12T06:53:13.642Z,31.74
2022-08-12T06:55:56.718Z,31.50
2022-08-12T06:58:26.607Z,32.58
2022-08-12T07:00:56.083Z,33.09
2022-08-12T07:03:27.783Z,33.61
2022-08-12T07:05:57.204Z,32.87
2022-08-12T07:08:29.273Z,33.36
2022-08-12T07:11:01.163Z,33.67
2022-08-12T07:13:32.074Z,33.74
2022-08-12T07:16:01.196Z,33.96
2022-08-12T07:18:32.742Z,34.79
2022-08-12T07:21:02.542Z,34.83
2022-08-12T07:23:33.516Z,34.99
2022-08-12T07:26:02.982Z,36.11
2022-08-12T07:28:34.948Z,35.95
2022-08-12T07:31:07.760Z,35.43
2022-08-12T07:33:38.619Z,35.30
2022-08-12T07:36:12.066Z,35.50
2022-08-12T07:38:43.870Z,34.82
2022-08-12T07:41:15.858Z,35.47
2022-08-12T07:43:45.687Z,35.57
2022-08-12T07:46:16.213Z,35.06
2022-08-12T07:48:46.578Z,34.76
2022-08-12T07:51:25.368Z,35.13
2022-08-12T07:54:01.043Z,34.92
2022-08-12T07:56:32.166Z,34.68
2022-08-12T07:59:03.282Z,34.72
2022-08-12T08:01:32.717Z,34.04
2022-08-12T08:04:19.482Z,34.04
2022-08-12T08:06:48.422Z,33.63
2022-08-12T08:09:19.672Z,33.98
2022-08-12T08:12:05.267Z,34.01
2022-08-12T08:14:33.061Z,33.49
2022-08-12T08:17:04.003Z,33.42
2022-08-12T08:19:33.719Z,33.20
2022-08-12T08:22:33.485Z,32.45
2022-08-12T08:25:34.924Z,32.24
2022-08-12T08:28:01.001Z,31.42
2022-08-12T08:30:30.268Z,31.31
2022-08-12T08:32:58.355Z,31.52
2022-08-12T08:35:29.892Z,31.45
2022-08-12T08:38:32.087Z,31.26
2022-08-12T08:42:16.495Z,31.35
2022-08-12T08:44:12.111Z,30.66
2022-08-12T08:46:40.617Z,30.21
2022-08-12T08:49:08.661Z,30.19
2022-08-12T08:51:37.073Z,29.69
2022-08-12T08:54:04.962Z,29.59
2022-08-12T08:56:33.961Z,29.60
2022-08-12T08:59:01.648Z,29.64
2022-08-12T09:01:38.033Z,29.29
2022-08-12T09:05:10.123Z,29.23
2022-08-12T09:07:18.138Z,29.26
2022-08-12T09:13:23.609Z,29.29
2022-08-12T09:15:59.397Z,29.36
2022-08-12T09:18:33.205Z,29.32
2022-08-12T09:21:02.744Z,29.21
2022-08-12T09:23:59.576Z,29.22
2022-08-12T09:26:19.649Z,29.00
2022-08-12T09:28:53.171Z,29.19
2022-08-12T09:32:04.157Z,29.28
2022-08-12T09:34:25.242Z,29.35
2022-08-12T09:37:00.620Z,29.59
2022-08-12T09:40:05.535Z,29.64
2022-08-12T09:42:56.837Z,29.80
2022-08-12T09:46:05.344Z,29.50
2022-08-12T09:48:20.391Z,29.43
2022-08-12T09:50:51.674Z,29.58
2022-08-12T09:53:36.618Z,29.48
2022-08-12T09:56:59.309Z,29.43
2022-08-12T09:59:01.666Z,29.38
2022-08-12T10:01:35.559Z,29.21
2022-08-12T10:04:20.560Z,29.54
2022-08-12T10:06:54.717Z,29.53
2022-08-12T10:09:57.330Z,29.46
2022-08-12T10:12:31.281Z,29.46
2022-08-12T10:15:01.327Z,29.70
2022-08-12T10:17:30.815Z,29.70
2022-08-12T10:19:59.636Z,29.78
2022-08-12T10:22:39.713Z,30.01
2022-08-12T10:26:18.961Z,29.99
2022-08-12T10:28:32.590Z,29.82
2022-08-12T10:31:01.467Z,30.06
2022-08-12T10:33:32.390Z,29.91
2022-08-12T10:36:01.824Z,29.80
2022-08-12T10:38:33.963Z,29.76
2022-08-12T10:41:58.251Z,29.91
2022-08-12T10:44:17.536Z,30.03
2022-08-12T10:46:45.944Z,30.08
2022-08-12T10:50:04.784Z,30.17
2022-08-12T10:52:34.903Z,30.31
2022-08-12T10:54:57.095Z,30.33
2022-08-12T10:58:15.664Z,30.28
2022-08-12T11:00:30.456Z,29.97
2022-08-12T11:04:25.900Z,30.16
2022-08-12T11:07:07.911Z,30.39
2022-08-12T11:08:43.654Z,29.98
2022-08-12T11:11:17.792Z,29.66
2022-08-12T11:14:05.863Z,29.73
2022-08-12T11:16:33.899Z,29.98
2022-08-12T11:19:05.595Z,29.92
2022-08-12T11:21:57.826Z,30.03
2022-08-12T11:24:30.391Z,30.04
2022-08-12T11:27:00.215Z,30.26
2022-08-12T11:30:02.214Z,30.28
2022-08-12T11:32:18.001Z,30.24
2022-08-12T11:34:51.298Z,30.34
2022-08-12T11:37:25.732Z,30.15
2022-08-12T11:42:35.016Z,29.34
2022-08-12T11:45:03.670Z,29.33
2022-08-12T11:47:32.834Z,29.47
2022-08-12T11:50:00.518Z,29.65
2022-08-12T11:52:55.290Z,29.68
2022-08-12T11:55:23.088Z,30.01
2022-08-12T11:58:52.926Z,30.04
2022-08-12T12:03:45.984Z,29.65
2022-08-12T12:06:16.833Z,29.58
2022-08-12T12:08:51.281Z,29.92
2022-08-12T12:11:21.465Z,29.60
2022-08-12T12:14:08.554Z,29.38
2022-08-12T12:16:39.866Z,29.47
2022-08-12T12:19:10.621Z,29.58
2022-08-12T12:21:48.001Z,29.54
2022-08-12T12:24:21.099Z,29.55
2022-08-12T12:26:59.755Z,29.47
2022-08-12T12:30:14.909Z,29.34
2022-08-12T12:32:16.962Z,29.37
2022-08-12T12:35:13.562Z,29.27
2022-08-12T12:38:04.463Z,29.12
2022-08-12T12:40:29.998Z,29.28
2022-08-12T12:43:03.079Z,29.43
2022-08-12T12:45:35.609Z,29.39
2022-08-12T12:48:05.469Z,29.66
2022-08-12T12:50:35.877Z,30.04
2022-08-12T12:53:15.698Z,30.21
2022-08-12T12:55:59.914Z,30.42
2022-08-12T12:58:27.583Z,30.74
2022-08-12T13:01:04.508Z,30.77
2022-08-12T13:03:48.859Z,30.58
2022-08-12T13:06:19.085Z,30.76
2022-08-12T13:08:48.782Z,30.72
2022-08-12T13:11:21.177Z,30.60
2022-08-12T13:14:07.756Z,30.62
2022-08-12T13:16:43.781Z,30.50
2022-08-12T13:19:12.107Z,30.22
2022-08-12T13:22:03.871Z,30.11
2022-08-12T13:24:33.504Z,29.80
2022-08-12T13:27:02.648Z,29.77
2022-08-12T13:29:33.567Z,29.84
2022-08-12T13:32:18.688Z,29.84
2022-08-12T13:34:52.751Z,29.71
2022-08-12T13:37:43.943Z,29.47
2022-08-12T13:40:19.591Z,29.40
2022-08-12T13:42:51.013Z,29.41
2022-08-12T13:45:18.823Z,29.55
2022-08-12T13:47:55.500Z,29.92
2022-08-12T13:50:32.866Z,30.23
2022-08-12T13:53:23.388Z,30.48
2022-08-12T13:56:01.449Z,30.58
2022-08-12T13:58:34.767Z,30.62
2022-08-12T14:01:06.099Z,30.75
2022-08-12T14:03:50.423Z,30.83
2022-08-12T14:06:26.033Z,30.67
2022-08-12T14:08:58.559Z,30.84
2022-08-12T14:11:27.883Z,30.84
2022-08-12T14:14:04.632Z,30.81
2022-08-12T14:16:49.186Z,30.89
2022-08-12T14:19:24.447Z,30.64
2022-08-12T14:22:00.937Z,30.37
2022-08-12T14:24:35.086Z,30.12
2022-08-12T14:27:03.002Z,29.97
2022-08-12T14:29:56.214Z,29.55
2022-08-12T14:32:20.726Z,29.49
2022-08-12T14:34:52.941Z,29.73
2022-08-12T14:37:57.511Z,30.00
2022-08-12T14:40:18.110Z,30.20
2022-08-12T14:42:47.139Z,30.35
2022-08-12T14:45:16.528Z,30.45
2022-08-12T14:47:58.445Z,30.61
2022-08-12T14:50:41.321Z,30.47
2022-08-12T14:59:23.071Z,30.38
2022-08-12T15:01:54.521Z,30.16
2022-08-12T15:04:29.140Z,30.12
2022-08-12T15:06:56.983Z,30.07
2022-08-12T15:09:29.023Z,30.07
2022-08-12T15:12:03.572Z,30.00
2022-08-12T15:14:35.298Z,30.01
2022-08-12T15:17:08.233Z,29.84
2022-08-12T15:20:28.579Z,29.84
2022-08-12T15:22:36.922Z,29.95
2022-08-12T15:25:08.912Z,29.98
2022-08-12T15:28:10.929Z,29.86
2022-08-12T15:30:32.299Z,29.61
2022-08-12T15:33:12.858Z,29.48
2022-08-12T15:35:53.252Z,29.68
2022-08-12T15:38:23.617Z,29.81
2022-08-12T15:40:53.439Z,29.78
2022-08-12T15:43:51.149Z,29.87
2022-08-12T15:46:15.463Z,29.61
2022-08-12T15:48:46.947Z,29.41
2022-08-12T15:51:58.214Z,29.22
2022-08-12T15:54:33.641Z,29.03
2022-08-12T15:57:05.690Z,29.06
2022-08-12T16:00:03.707Z,28.97
2022-08-12T16:02:26.617Z,28.98
2022-08-12T16:04:56.110Z,29.04
2022-08-12T16:07:29.766Z,29.01
2022-08-12T16:10:05.994Z,29.01
2022-08-12T16:12:41.877Z,29.03
2022-08-12T16:15:12.088Z,29.07
2022-08-12T16:18:17.952Z,29.02
2022-08-12T16:20:33.308Z,28.98
2022-08-12T16:23:04.177Z,28.97
2022-08-12T16:26:02.806Z,28.91
2022-08-12T16:28:20.793Z,28.86
2022-08-12T16:30:56.167Z,28.81
2022-08-12T16:33:35.727Z,28.76
2022-08-12T16:36:25.006Z,28.63
2022-08-12T16:38:52.815Z,28.60
2022-08-12T16:41:20.513Z,28.60
2022-08-12T16:43:48.568Z,28.56
2022-08-12T16:46:32.624Z,28.51
2022-08-12T16:49:04.354Z,28.47
2022-08-12T16:51:46.324Z,28.47
2022-08-12T16:54:17.101Z,28.45
2022-08-12T16:56:54.546Z,28.39
2022-08-12T16:59:23.852Z,28.32
2022-08-12T17:01:51.922Z,28.27
2022-08-12T17:04:24.403Z,28.23
2022-08-12T17:06:53.802Z,28.18
2022-08-12T17:09:22.977Z,28.15
2022-08-12T17:11:50.776Z,28.10
2022-08-12T17:14:20.343Z,28.06
2022-08-12T17:16:52.258Z,28.01
2022-08-12T17:19:34.096Z,27.96
2022-08-12T17:22:11.997Z,27.89
2022-08-12T17:24:44.045Z,27.84
2022-08-12T17:27:23.154Z,27.82
2022-08-12T17:30:03.033Z,27.77
2022-08-12T17:32:36.879Z,27.70
2022-08-12T17:35:23.113Z,27.65
2022-08-12T17:38:02.113Z,27.55
2022-08-12T17:40:35.515Z,27.46
2022-08-12T17:43:57.272Z,27.36
2022-08-12T17:45:59.040Z,27.31
2022-08-12T17:48:35.105Z,27.24
2022-08-12T17:51:15.580Z,27.13
2022-08-12T17:54:05.801Z,27.06
2022-08-12T17:56:37.211Z,26.96
2022-08-12T17:59:07.549Z,26.93
2022-08-12T18:01:36.536Z,26.85
2022-08-12T18:04:21.269Z,26.75
2022-08-12T18:06:50.591Z,26.65
2022-08-12T18:09:21.452Z,26.54
2022-08-12T18:12:24.778Z,26.43
2022-08-12T18:14:58.596Z,26.28
2022-08-12T18:17:27.129Z,26.15
2022-08-12T18:20:06.467Z,26.01
2022-08-12T18:22:38.536Z,25.86
2022-08-12T18:25:24.941Z,25.71
2022-08-12T18:28:15.468Z,25.57
2022-08-12T18:30:52.411Z,25.41
2022-08-12T18:33:25.115Z,25.28
2022-08-12T18:35:55.524Z,25.12
2022-08-12T18:38:27.728Z,25.07
2022-08-12T18:41:21.318Z,24.95
2022-08-12T18:43:59.010Z,24.76
2022-08-12T18:46:33.082Z,24.60
2022-08-12T18:49:16.875Z,24.43
2022-08-12T18:51:55.276Z,24.28
2022-08-12T18:54:32.208Z,24.11
2022-08-12T18:57:04.944Z,23.96
2022-08-12T18:59:59.607Z,23.80
2022-08-12T19:02:25.328Z,23.61
2022-08-12T19:04:54.055Z,23.48
2022-08-12T19:07:38.973Z,23.35
2022-08-12T19:10:16.061Z,23.20
2022-08-12T19:13:03.573Z,23.12
2022-08-12T19:15:42.270Z,22.99
2022-08-12T19:18:12.325Z,22.88
2022-08-12T19:20:41.722Z,22.75
2022-08-12T19:23:16.682Z,22.64
2022-08-12T19:26:00.401Z,22.52
2022-08-12T19:28:36.459Z,22.48
2022-08-12T19:31:55.382Z,22.40
2022-08-12T19:34:56.479Z,22.27
2022-08-12T19:37:20.367Z,22.22
2022-08-12T19:40:10.034Z,22.14
2022-08-12T19:42:48.531Z,22.05
2022-08-12T19:45:23.017Z,21.97
2022-08-12T19:47:50.821Z,21.93
2022-08-12T19:50:20.265Z,21.86
2022-08-12T19:52:51.144Z,21.80
2022-08-12T19:55:21.912Z,21.69
2022-08-12T19:58:02.554Z,21.62
2022-08-12T20:00:34.744Z,21.55
2022-08-12T20:03:04.477Z,21.52
2022-08-12T20:06:04.702Z,21.47
2022-08-12T20:08:31.604Z,21.38
2022-08-12T20:12:13.148Z,21.33
2022-08-12T20:14:00.173Z,21.26
2022-08-12T20:16:58.046Z,21.22
2022-08-12T20:19:52.447Z,21.24
2022-08-12T20:22:23.948Z,21.22
2022-08-12T20:24:55.299Z,21.16
2022-08-12T20:27:28.698Z,21.03
2022-08-12T20:29:58.489Z,20.93
2022-08-12T20:32:29.617Z,20.84
2022-08-12T20:35:10.119Z,20.81
2022-08-12T20:38:07.261Z,20.79
2022-08-12T20:40:26.849Z,20.89
2022-08-12T20:42:55.674Z,20.93
2022-08-12T20:45:26.024Z,20.90
2022-08-12T20:48:13.891Z,20.91
2022-08-12T20:50:43.316Z,20.90
2022-08-12T20:53:33.302Z,20.95
2022-08-12T20:56:19.593Z,21.09
2022-08-12T20:58:47.606Z,21.11
2022-08-12T21:01:19.681Z,21.14
2022-08-12T21:04:12.965Z,21.16
2022-08-12T21:07:08.272Z,21.15
2022-08-12T21:09:41.762Z,21.13
2022-08-12T21:12:31.286Z,21.12
2022-08-12T21:15:23.217Z,21.15
2022-08-12T21:18:08.057Z,21.22
2022-08-12T21:20:42.094Z,21.24
2022-08-12T21:23:09.829Z,21.29
2022-08-12T21:25:45.233Z,21.34
2022-08-12T21:28:14.013Z,21.33
2022-08-12T21:31:11.262Z,21.33
2022-08-12T21:33:31.558Z,21.29
2022-08-12T21:36:02.891Z,21.32
2022-08-12T21:38:34.911Z,21.33
2022-08-12T21:41:07.047Z,21.27
2022-08-12T21:43:38.864Z,21.15
2022-08-12T21:46:35.075Z,21.06
2022-08-12T21:49:05.458Z,20.94
2022-08-12T21:51:49.223Z,20.90
2022-08-12T21:54:22.052Z,20.83
2022-08-12T21:56:50.521Z,20.81
2022-08-12T21:59:19.013Z,20.77
2022-08-12T22:01:49.321Z,20.75
2022-08-12T22:04:35.403Z,20.74
2022-08-12T22:07:06.143Z,20.72
2022-08-12T22:09:42.768Z,20.67
2022-08-12T22:12:28.923Z,20.61
2022-08-12T22:14:56.565Z,20.57
2022-08-12T22:17:49.371Z,20.55
2022-08-12T22:20:21.918Z,20.50
2022-08-12T22:22:53.921Z,20.46
2022-08-12T22:25:27.767Z,20.45
2022-08-12T22:28:13.089Z,20.45
2022-08-12T22:30:59.432Z,20.47
2022-08-12T22:33:27.110Z,20.56
2022-08-12T22:35:59.772Z,20.55
2022-08-12T22:38:29.869Z,20.58
2022-08-12T22:41:00.794Z,20.62
2022-08-12T22:43:59.012Z,20.57
2022-08-12T22:46:53.217Z,20.52
2022-08-12T22:49:22.054Z,20.52
2022-08-12T22:52:01.014Z,20.53
2022-08-12T22:54:37.570Z,20.49
2022-08-12T22:57:13.942Z,20.47
2022-08-12T22:59:55.201Z,20.46
2022-08-12T23:02:28.842Z,20.42
2022-08-12T23:04:58.192Z,20.34
2022-08-12T23:07:25.909Z,20.30
2022-08-12T23:09:55.007Z,20.26
2022-08-12T23:12:37.531Z,20.26
2022-08-12T23:15:10.083Z,20.20
2022-08-12T23:17:40.691Z,20.16
2022-08-12T23:20:11.020Z,20.14
2022-08-12T23:22:40.145Z,20.11
2022-08-12T23:25:18.802Z,20.11
2022-08-12T23:28:04.466Z,20.14
2022-08-12T23:30:35.133Z,20.21
2022-08-12T23:33:19.847Z,20.30
2022-08-12T23:36:02.797Z,20.31
2022-08-12T23:38:32.835Z,20.29
2022-08-12T23:41:04.271Z,20.29
2022-08-12T23:43:39.547Z,20.34
2022-08-12T23:46:09.564Z,20.31
2022-08-12T23:48:37.681Z,20.29
2022-08-12T23:51:22.915Z,20.23
2022-08-12T23:53:54.831Z,20.13
2022-08-12T23:56:25.302Z,20.04
2022-08-12T23:58:55.321Z,19.97
